sensor_id;sensor_type;location;lat;lon;timestamp;pressure;altitude;pressure_sealevel;temperature;humidity
10470;BME280;5282;47.052;15.458;2023-04-08T00:00:48;97456.63;;;6.88;72.36
10470;BME280;5282;47.052;15.458;2023-04-08T00:03:15;97457.47;;;6.88;72.07
10470;BME280;5282;47.052;15.458;2023-04-08T00:05:43;97463.38;;;6.92;72.09
10470;BME280;5282;47.052;15.458;2023-04-08T00:08:10;97461.41;;;6.94;70.59
10470;BME280;5282;47.052;15.458;2023-04-08T00:10:38;97458.56;;;6.95;70.32
10470;BME280;5282;47.052;15.458;2023-04-08T00:13:05;97449.13;;;6.91;70.65
10470;BME280;5282;47.052;15.458;2023-04-08T00:15:31;97454.63;;;6.90;71.55
10470;BME280;5282;47.052;15.458;2023-04-08T00:17:58;97454.34;;;6.93;71.48
10470;BME280;5282;47.052;15.458;2023-04-08T00:20:26;97452.13;;;6.88;72.42
10470;BME280;5282;47.052;15.458;2023-04-08T00:22:54;97451.25;;;6.88;71.07
10470;BME280;5282;47.052;15.458;2023-04-08T00:25:22;97450.06;;;6.72;72.84
10470;BME280;5282;47.052;15.458;2023-04-08T00:27:49;97453.47;;;6.55;74.97
10470;BME280;5282;47.052;15.458;2023-04-08T00:30:16;97453.84;;;6.70;73.52
10470;BME280;5282;47.052;15.458;2023-04-08T00:32:43;97442.31;;;6.69;73.04
10470;BME280;5282;47.052;15.458;2023-04-08T00:35:10;97441.72;;;6.75;73.36
10470;BME280;5282;47.052;15.458;2023-04-08T00:37:37;97448.47;;;6.79;73.46
10470;BME280;5282;47.052;15.458;2023-04-08T00:40:07;97445.09;;;6.77;74.03
10470;BME280;5282;47.052;15.458;2023-04-08T00:42:35;97443.41;;;6.76;74.33
10470;BME280;5282;47.052;15.458;2023-04-08T00:45:02;97455.53;;;6.71;73.55
10470;BME280;5282;47.052;15.458;2023-04-08T00:47:30;97450.44;;;6.77;73.09
10470;BME280;5282;47.052;15.458;2023-04-08T00:49:59;97450.28;;;6.79;73.01
10470;BME280;5282;47.052;15.458;2023-04-08T00:52:26;97457.78;;;6.75;72.99
10470;BME280;5282;47.052;15.458;2023-04-08T00:54:54;97454.28;;;6.65;74.25
10470;BME280;5282;47.052;15.458;2023-04-08T00:57:23;97449.91;;;6.64;73.78
10470;BME280;5282;47.052;15.458;2023-04-08T00:59:49;97446.69;;;6.60;74.48
10470;BME280;5282;47.052;15.458;2023-04-08T01:02:22;97442.31;;;6.69;75.34
10470;BME280;5282;47.052;15.458;2023-04-08T01:04:58;97447.94;;;6.66;76.12
10470;BME280;5282;47.052;15.458;2023-04-08T01:07:31;97441.16;;;6.72;75.63
10470;BME280;5282;47.052;15.458;2023-04-08T01:10:02;97448.38;;;6.61;77.31
10470;BME280;5282;47.052;15.458;2023-04-08T01:12:39;97446.75;;;6.41;81.17
10470;BME280;5282;47.052;15.458;2023-04-08T01:15:09;97445.50;;;6.25;81.80
10470;BME280;5282;47.052;15.458;2023-04-08T01:17:40;97441.69;;;6.38;81.72
10470;BME280;5282;47.052;15.458;2023-04-08T01:20:10;97442.09;;;6.43;80.78
10470;BME280;5282;47.052;15.458;2023-04-08T01:22:45;97442.06;;;6.53;80.47
10470;BME280;5282;47.052;15.458;2023-04-08T01:25:22;97443.19;;;6.60;80.80
10470;BME280;5282;47.052;15.458;2023-04-08T01:27:51;97449.22;;;6.62;79.19
10470;BME280;5282;47.052;15.458;2023-04-08T01:30:22;97441.72;;;6.18;87.14
10470;BME280;5282;47.052;15.458;2023-04-08T01:32:51;97432.56;;;6.30;84.44
10470;BME280;5282;47.052;15.458;2023-04-08T01:35:20;97433.97;;;6.05;88.87
10470;BME280;5282;47.052;15.458;2023-04-08T01:37:49;97438.03;;;6.29;85.50
10470;BME280;5282;47.052;15.458;2023-04-08T01:40:18;97431.13;;;6.16;88.19
10470;BME280;5282;47.052;15.458;2023-04-08T01:42:47;97440.88;;;6.08;88.23
10470;BME280;5282;47.052;15.458;2023-04-08T01:45:16;97441.56;;;6.20;88.17
10470;BME280;5282;47.052;15.458;2023-04-08T01:47:58;97433.53;;;6.20;86.85
10470;BME280;5282;47.052;15.458;2023-04-08T01:50:31;97441.81;;;5.97;91.71
10470;BME280;5282;47.052;15.458;2023-04-08T01:53:01;97432.56;;;6.30;87.43
10470;BME280;5282;47.052;15.458;2023-04-08T01:55:39;97434.09;;;6.33;87.23
10470;BME280;5282;47.052;15.458;2023-04-08T01:58:19;97425.78;;;6.36;86.37
10470;BME280;5282;47.052;15.458;2023-04-08T02:00:50;97431.94;;;6.46;85.42
10470;BME280;5282;47.052;15.458;2023-04-08T02:03:30;97442.41;;;6.20;89.82
10470;BME280;5282;47.052;15.458;2023-04-08T02:06:02;97440.84;;;6.27;89.35
10470;BME280;5282;47.052;15.458;2023-04-08T02:08:33;97442.38;;;6.30;89.65
10470;BME280;5282;47.052;15.458;2023-04-08T02:11:04;97443.53;;;6.17;93.01
10470;BME280;5282;47.052;15.458;2023-04-08T02:13:36;97444.91;;;5.92;95.31
10470;BME280;5282;47.052;15.458;2023-04-08T02:16:15;97447.44;;;5.94;95.45
10470;BME280;5282;47.052;15.458;2023-04-08T02:18:49;97442.69;;;6.07;94.08
10470;BME280;5282;47.052;15.458;2023-04-08T02:21:20;97440.13;;;6.15;92.70
10470;BME280;5282;47.052;15.458;2023-04-08T02:23:49;97444.75;;;5.94;98.30
10470;BME280;5282;47.052;15.458;2023-04-08T02:26:17;97445.25;;;6.09;95.63
10470;BME280;5282;47.052;15.458;2023-04-08T02:28:48;97453.81;;;6.12;95.43
10470;BME280;5282;47.052;15.458;2023-04-08T02:31:18;97448.44;;;6.22;96.59
10470;BME280;5282;47.052;15.458;2023-04-08T02:33:46;97444.81;;;6.13;96.41
10470;BME280;5282;47.052;15.458;2023-04-08T02:36:17;97440.03;;;6.27;95.24
10470;BME280;5282;47.052;15.458;2023-04-08T02:38:47;97439.47;;;6.13;97.80
10470;BME280;5282;47.052;15.458;2023-04-08T02:41:13;97445.50;;;6.06;100.00
10470;BME280;5282;47.052;15.458;2023-04-08T02:43:44;97440.69;;;6.29;96.78
10470;BME280;5282;47.052;15.458;2023-04-08T02:46:12;97438.44;;;6.24;97.98
10470;BME280;5282;47.052;15.458;2023-04-08T02:48:41;97437.06;;;6.00;100.00
10470;BME280;5282;47.052;15.458;2023-04-08T02:51:10;97445.59;;;5.84;100.00
10470;BME280;5282;47.052;15.458;2023-04-08T02:53:37;97440.13;;;5.96;100.00
10470;BME280;5282;47.052;15.458;2023-04-08T02:56:05;97433.97;;;6.05;100.00
10470;BME280;5282;47.052;15.458;2023-04-08T02:58:32;97433.84;;;6.07;100.00
10470;BME280;5282;47.052;15.458;2023-04-08T03:00:58;97432.97;;;6.26;100.00
10470;BME280;5282;47.052;15.458;2023-04-08T03:03:25;97436.31;;;6.38;100.00
10470;BME280;5282;47.052;15.458;2023-04-08T03:05:56;97430.00;;;6.29;100.00
10470;BME280;5282;47.052;15.458;2023-04-08T03:08:23;97439.03;;;6.08;100.00
10470;BME280;5282;47.052;15.458;2023-04-08T03:10:51;97437.47;;;6.15;100.00
10470;BME280;5282;47.052;15.458;2023-04-08T03:13:18;97444.50;;;5.97;100.00
10470;BME280;5282;47.052;15.458;2023-04-08T03:15:45;97446.59;;;5.83;100.00
10470;BME280;5282;47.052;15.458;2023-04-08T03:18:12;97434.66;;;5.68;100.00
10470;BME280;5282;47.052;15.458;2023-04-08T03:20:39;97434.50;;;5.79;100.00
10470;BME280;5282;47.052;15.458;2023-04-08T03:23:07;97439.16;;;5.77;100.00
10470;BME280;5282;47.052;15.458;2023-04-08T03:25:35;97439.28;;;5.85;100.00
10470;BME280;5282;47.052;15.458;2023-04-08T03:28:01;97435.19;;;5.52;100.00
10470;BME280;5282;47.052;15.458;2023-04-08T03:30:28;97440.78;;;5.39;100.00
10470;BME280;5282;47.052;15.458;2023-04-08T03:32:57;97446.56;;;5.54;100.00
10470;BME280;5282;47.052;15.458;2023-04-08T03:35:28;97448.13;;;5.76;100.00
10470;BME280;5282;47.052;15.458;2023-04-08T03:37:55;97449.13;;;5.75;100.00
10470;BME280;5282;47.052;15.458;2023-04-08T03:40:23;97453.91;;;5.91;100.00
10470;BME280;5282;47.052;15.458;2023-04-08T03:42:50;97450.25;;;5.92;100.00
10470;BME280;5282;47.052;15.458;2023-04-08T03:45:17;97459.25;;;5.81;100.00
10470;BME280;5282;47.052;15.458;2023-04-08T03:47:44;97453.09;;;5.91;100.00
10470;BME280;5282;47.052;15.458;2023-04-08T03:50:11;97459.81;;;5.75;100.00
10470;BME280;5282;47.052;15.458;2023-04-08T03:52:40;97456.88;;;5.78;100.00
10470;BME280;5282;47.052;15.458;2023-04-08T03:55:08;97461.78;;;5.73;100.00
10470;BME280;5282;47.052;15.458;2023-04-08T03:57:37;97465.44;;;5.62;100.00
10470;BME280;5282;47.052;15.458;2023-04-08T04:00:05;97465.97;;;5.56;100.00
10470;BME280;5282;47.052;15.458;2023-04-08T04:02:33;97467.97;;;5.83;100.00
10470;BME280;5282;47.052;15.458;2023-04-08T04:05:00;97478.13;;;5.90;100.00
10470;BME280;5282;47.052;15.458;2023-04-08T04:07:27;97476.41;;;5.89;100.00
10470;BME280;5282;47.052;15.458;2023-04-08T04:09:54;97484.56;;;5.87;100.00
10470;BME280;5282;47.052;15.458;2023-04-08T04:12:22;97487.38;;;5.85;100.00
10470;BME280;5282;47.052;15.458;2023-04-08T04:14:50;97484.28;;;5.90;100.00
10470;BME280;5282;47.052;15.458;2023-04-08T04:17:17;97489.50;;;5.92;100.00
10470;BME280;5282;47.052;15.458;2023-04-08T04:19:43;97492.59;;;5.77;100.00
10470;BME280;5282;47.052;15.458;2023-04-08T04:22:10;97499.47;;;5.80;100.00
10470;BME280;5282;47.052;15.458;2023-04-08T04:24:37;97502.13;;;5.80;100.00
10470;BME280;5282;47.052;15.458;2023-04-08T04:27:04;97497.94;;;5.77;100.00
10470;BME280;5282;47.052;15.458;2023-04-08T04:29:31;97495.75;;;5.51;100.00
10470;BME280;5282;47.052;15.458;2023-04-08T04:31:59;97501.97;;;5.62;100.00
10470;BME280;5282;47.052;15.458;2023-04-08T04:34:26;97498.03;;;5.66;100.00
10470;BME280;5282;47.052;15.458;2023-04-08T04:36:53;97498.03;;;5.66;100.00
10470;BME280;5282;47.052;15.458;2023-04-08T04:39:20;97501.13;;;5.71;100.00
10470;BME280;5282;47.052;15.458;2023-04-08T04:41:47;97507.44;;;5.70;100.00
10470;BME280;5282;47.052;15.458;2023-04-08T04:44:14;97507.19;;;5.63;100.00
10470;BME280;5282;47.052;15.458;2023-04-08T04:46:40;97517.38;;;5.38;100.00
10470;BME280;5282;47.052;15.458;2023-04-08T04:49:09;97522.03;;;5.46;100.00
10470;BME280;5282;47.052;15.458;2023-04-08T04:51:36;97524.31;;;5.51;100.00
10470;BME280;5282;47.052;15.458;2023-04-08T04:54:03;97520.66;;;5.52;100.00
10470;BME280;5282;47.052;15.458;2023-04-08T04:56:29;97528.94;;;5.49;100.00
10470;BME280;5282;47.052;15.458;2023-04-08T04:58:56;97529.50;;;5.52;100.00
10470;BME280;5282;47.052;15.458;2023-04-08T05:01:23;97530.50;;;5.20;100.00
10470;BME280;5282;47.052;15.458;2023-04-08T05:03:51;97531.25;;;5.01;100.00
10470;BME280;5282;47.052;15.458;2023-04-08T05:06:19;97533.97;;;5.11;100.00
10470;BME280;5282;47.052;15.458;2023-04-08T05:08:48;97535.84;;;5.20;100.00
10470;BME280;5282;47.052;15.458;2023-04-08T05:11:16;97539.50;;;5.19;100.00
10470;BME280;5282;47.052;15.458;2023-04-08T05:13:43;97545.53;;;5.21;100.00
10470;BME280;5282;47.052;15.458;2023-04-08T05:16:10;97544.03;;;5.29;100.00
10470;BME280;5282;47.052;15.458;2023-04-08T05:18:37;97552.56;;;5.22;100.00
10470;BME280;5282;47.052;15.458;2023-04-08T05:21:06;97550.78;;;5.33;100.00
10470;BME280;5282;47.052;15.458;2023-04-08T05:23:35;97553.19;;;5.36;100.00
10470;BME280;5282;47.052;15.458;2023-04-08T05:26:02;97551.09;;;5.39;100.00
10470;BME280;5282;47.052;15.458;2023-04-08T05:28:29;97549.81;;;5.34;100.00
10470;BME280;5282;47.052;15.458;2023-04-08T05:30:56;97551.06;;;5.30;100.00
10470;BME280;5282;47.052;15.458;2023-04-08T05:33:25;97555.25;;;5.22;100.00
10470;BME280;5282;47.052;15.458;2023-04-08T05:35:52;97558.84;;;5.12;100.00
10470;BME280;5282;47.052;15.458;2023-04-08T05:38:19;97564.75;;;5.15;100.00
10470;BME280;5282;47.052;15.458;2023-04-08T05:40:48;97562.47;;;5.10;100.00
10470;BME280;5282;47.052;15.458;2023-04-08T05:43:15;97564.75;;;5.15;100.00
10470;BME280;5282;47.052;15.458;2023-04-08T05:45:42;97564.56;;;5.07;100.00
10470;BME280;5282;47.052;15.458;2023-04-08T05:48:09;97574.75;;;4.92;100.00
10470;BME280;5282;47.052;15.458;2023-04-08T05:50:36;97570.63;;;5.09;100.00
10470;BME280;5282;47.052;15.458;2023-04-08T05:53:03;97579.03;;;5.04;100.00
10470;BME280;5282;47.052;15.458;2023-04-08T05:55:29;97582.28;;;4.87;100.00
10470;BME280;5282;47.052;15.458;2023-04-08T05:57:58;97581.13;;;4.79;100.00
10470;BME280;5282;47.052;15.458;2023-04-08T06:00:25;97580.88;;;4.83;100.00
10470;BME280;5282;47.052;15.458;2023-04-08T06:02:52;97578.50;;;4.68;100.00
10470;BME280;5282;47.052;15.458;2023-04-08T06:05:19;97584.44;;;4.72;100.00
10470;BME280;5282;47.052;15.458;2023-04-08T06:07:46;97583.72;;;4.91;100.00
10470;BME280;5282;47.052;15.458;2023-04-08T06:10:13;97583.31;;;4.96;100.00
10470;BME280;5282;47.052;15.458;2023-04-08T06:12:40;97586.44;;;5.01;100.00
10470;BME280;5282;47.052;15.458;2023-04-08T06:15:09;97586.72;;;4.98;100.00
10470;BME280;5282;47.052;15.458;2023-04-08T06:17:36;97589.19;;;4.68;100.00
10470;BME280;5282;47.052;15.458;2023-04-08T06:20:04;97596.06;;;4.71;100.00
10470;BME280;5282;47.052;15.458;2023-04-08T06:22:31;97598.94;;;4.58;100.00
10470;BME280;5282;47.052;15.458;2023-04-08T06:24:58;97596.16;;;4.81;100.00
10470;BME280;5282;47.052;15.458;2023-04-08T06:27:25;97600.19;;;4.75;100.00
10470;BME280;5282;47.052;15.458;2023-04-08T06:29:52;97610.53;;;4.68;100.00
10470;BME280;5282;47.052;15.458;2023-04-08T06:32:21;97608.50;;;4.60;100.00
10470;BME280;5282;47.052;15.458;2023-04-08T06:34:48;97615.91;;;4.78;100.00
10470;BME280;5282;47.052;15.458;2023-04-08T06:37:14;97611.53;;;4.88;100.00
10470;BME280;5282;47.052;15.458;2023-04-08T06:39:41;97614.31;;;4.66;100.00
10470;BME280;5282;47.052;15.458;2023-04-08T06:42:09;97619.00;;;4.41;100.00
10470;BME280;5282;47.052;15.458;2023-04-08T06:44:36;97621.25;;;4.78;100.00
10470;BME280;5282;47.052;15.458;2023-04-08T06:47:03;97624.31;;;4.73;100.00
10470;BME280;5282;47.052;15.458;2023-04-08T06:49:32;97623.31;;;4.53;100.00
10470;BME280;5282;47.052;15.458;2023-04-08T06:52:02;97626.78;;;4.65;100.00
10470;BME280;5282;47.052;15.458;2023-04-08T06:54:28;97627.94;;;4.72;100.00
10470;BME280;5282;47.052;15.458;2023-04-08T06:56:55;97628.28;;;4.79;100.00
10470;BME280;5282;47.052;15.458;2023-04-08T06:59:22;97634.59;;;4.78;100.00
10470;BME280;5282;47.052;15.458;2023-04-08T07:01:51;97632.88;;;4.56;100.00
10470;BME280;5282;47.052;15.458;2023-04-08T07:04:20;97640.69;;;4.69;100.00
10470;BME280;5282;47.052;15.458;2023-04-08T07:06:49;97643.41;;;4.90;100.00
10470;BME280;5282;47.052;15.458;2023-04-08T07:09:16;97639.88;;;4.89;100.00
10470;BME280;5282;47.052;15.458;2023-04-08T07:11:43;97642.00;;;4.74;100.00
10470;BME280;5282;47.052;15.458;2023-04-08T07:14:11;97645.28;;;4.45;100.00
10470;BME280;5282;47.052;15.458;2023-04-08T07:16:38;97647.00;;;4.68;100.00
10470;BME280;5282;47.052;15.458;2023-04-08T07:19:05;97652.09;;;4.71;100.00
10470;BME280;5282;47.052;15.458;2023-04-08T07:21:32;97647.66;;;4.81;100.00
10470;BME280;5282;47.052;15.458;2023-04-08T07:24:00;97652.19;;;4.81;100.00
10470;BME280;5282;47.052;15.458;2023-04-08T07:26:27;97658.03;;;4.42;100.00
10470;BME280;5282;47.052;15.458;2023-04-08T07:28:54;97669.38;;;4.44;100.00
10470;BME280;5282;47.052;15.458;2023-04-08T07:31:21;97670.34;;;4.54;100.00
10470;BME280;5282;47.052;15.458;2023-04-08T07:33:48;97669.81;;;4.16;100.00
10470;BME280;5282;47.052;15.458;2023-04-08T07:36:15;97678.09;;;4.46;100.00
10470;BME280;5282;47.052;15.458;2023-04-08T07:38:42;97673.03;;;4.31;100.00
10470;BME280;5282;47.052;15.458;2023-04-08T07:41:10;97681.91;;;4.32;100.00
10470;BME280;5282;47.052;15.458;2023-04-08T07:43:37;97683.13;;;4.28;100.00
10470;BME280;5282;47.052;15.458;2023-04-08T07:46:05;97676.38;;;4.56;100.00
10470;BME280;5282;47.052;15.458;2023-04-08T07:48:32;97692.31;;;4.46;100.00
10470;BME280;5282;47.052;15.458;2023-04-08T07:51:02;97686.44;;;4.53;100.00
10470;BME280;5282;47.052;15.458;2023-04-08T07:53:29;97687.69;;;4.37;100.00
10470;BME280;5282;47.052;15.458;2023-04-08T07:55:56;97697.06;;;4.20;100.00
10470;BME280;5282;47.052;15.458;2023-04-08T07:58:24;97693.78;;;4.28;100.00
10470;BME280;5282;47.052;15.458;2023-04-08T08:00:52;97700.00;;;4.17;100.00
10470;BME280;5282;47.052;15.458;2023-04-08T08:03:19;97708.06;;;4.27;100.00
10470;BME280;5282;47.052;15.458;2023-04-08T08:05:46;97705.06;;;4.20;100.00
10470;BME280;5282;47.052;15.458;2023-04-08T08:08:13;97706.50;;;4.24;100.00
10470;BME280;5282;47.052;15.458;2023-04-08T08:10:43;97716.22;;;4.03;100.00
10470;BME280;5282;47.052;15.458;2023-04-08T08:13:09;97718.88;;;4.03;100.00
10470;BME280;5282;47.052;15.458;2023-04-08T08:15:42;97713.31;;;4.17;100.00
10470;BME280;5282;47.052;15.458;2023-04-08T08:18:09;97711.72;;;4.26;100.00
10470;BME280;5282;47.052;15.458;2023-04-08T08:20:38;97709.13;;;4.47;100.00
10470;BME280;5282;47.052;15.458;2023-04-08T08:23:05;97707.88;;;4.62;100.00
10470;BME280;5282;47.052;15.458;2023-04-08T08:25:32;97702.38;;;4.75;100.00
10470;BME280;5282;47.052;15.458;2023-04-08T08:27:59;97707.38;;;4.69;100.00
10470;BME280;5282;47.052;15.458;2023-04-08T08:30:26;97712.72;;;4.69;100.00
10470;BME280;5282;47.052;15.458;2023-04-08T08:32:54;97715.75;;;4.64;100.00
10470;BME280;5282;47.052;15.458;2023-04-08T08:35:23;97722.31;;;4.71;100.00
10470;BME280;5282;47.052;15.458;2023-04-08T08:37:50;97721.41;;;4.82;100.00
10470;BME280;5282;47.052;15.458;2023-04-08T08:40:17;97717.56;;;4.75;100.00
10470;BME280;5282;47.052;15.458;2023-04-08T08:42:49;97721.41;;;4.82;100.00
10470;BME280;5282;47.052;15.458;2023-04-08T08:45:17;97722.91;;;4.63;100.00
10470;BME280;5282;47.052;15.458;2023-04-08T08:47:44;97732.22;;;4.81;100.00
10470;BME280;5282;47.052;15.458;2023-04-08T08:50:13;97721.53;;;4.81;100.00
10470;BME280;5282;47.052;15.458;2023-04-08T08:52:47;97725.56;;;4.75;100.00
10470;BME280;5282;47.052;15.458;2023-04-08T08:55:15;97727.91;;;4.89;100.00
10470;BME280;5282;47.052;15.458;2023-04-08T08:57:45;97723.69;;;4.87;100.00
10470;BME280;5282;47.052;15.458;2023-04-08T09:00:16;97728.69;;;4.80;100.00
10470;BME280;5282;47.052;15.458;2023-04-08T09:02:43;97730.69;;;4.55;100.00
10470;BME280;5282;47.052;15.458;2023-04-08T09:05:10;97733.34;;;4.55;100.00
10470;BME280;5282;47.052;15.458;2023-04-08T09:07:38;97734.56;;;4.62;100.00
10470;BME280;5282;47.052;15.458;2023-04-08T09:10:07;97738.13;;;4.84;100.00
10470;BME280;5282;47.052;15.458;2023-04-08T09:12:52;97736.59;;;5.03;100.00
10470;BME280;5282;47.052;15.458;2023-04-08T09:15:19;97738.28;;;5.04;100.00
10470;BME280;5282;47.052;15.458;2023-04-08T09:17:46;97741.06;;;5.14;100.00
10470;BME280;5282;47.052;15.458;2023-04-08T09:20:13;97745.81;;;5.10;100.00
10470;BME280;5282;47.052;15.458;2023-04-08T09:22:59;97745.03;;;5.19;100.00
10470;BME280;5282;47.052;15.458;2023-04-08T09:25:27;97747.81;;;5.18;100.00
10470;BME280;5282;47.052;15.458;2023-04-08T09:27:54;97745.28;;;5.16;100.00
10470;BME280;5282;47.052;15.458;2023-04-08T09:30:23;97748.16;;;5.24;100.00
10470;BME280;5282;47.052;15.458;2023-04-08T09:32:51;97749.78;;;5.37;100.00
10470;BME280;5282;47.052;15.458;2023-04-08T09:35:19;97753.25;;;5.49;100.00
10470;BME280;5282;47.052;15.458;2023-04-08T09:37:47;97756.75;;;5.49;100.00
10470;BME280;5282;47.052;15.458;2023-04-08T09:40:16;97756.03;;;5.47;100.00
10470;BME280;5282;47.052;15.458;2023-04-08T09:42:44;97756.25;;;5.34;100.00
10470;BME280;5282;47.052;15.458;2023-04-08T09:45:14;97750.19;;;5.32;100.00
10470;BME280;5282;47.052;15.458;2023-04-08T09:47:51;97757.09;;;5.35;100.00
10470;BME280;5282;47.052;15.458;2023-04-08T09:50:25;97756.81;;;5.38;100.00
10470;BME280;5282;47.052;15.458;2023-04-08T09:52:57;97762.94;;;5.29;100.00
10470;BME280;5282;47.052;15.458;2023-04-08T09:55:29;97763.91;;;5.28;100.00
10470;BME280;5282;47.052;15.458;2023-04-08T09:57:58;97769.16;;;5.18;100.00
10470;BME280;5282;47.052;15.458;2023-04-08T10:00:29;97769.97;;;5.30;100.00
10470;BME280;5282;47.052;15.458;2023-04-08T10:03:03;97765.56;;;5.40;100.00
10470;BME280;5282;47.052;15.458;2023-04-08T10:05:36;97769.28;;;5.49;100.00
10470;BME280;5282;47.052;15.458;2023-04-08T10:08:04;97767.28;;;5.62;100.00
10470;BME280;5282;47.052;15.458;2023-04-08T10:10:33;97760.34;;;5.60;100.00
10470;BME280;5282;47.052;15.458;2023-04-08T10:13:03;97758.66;;;5.59;100.00
10470;BME280;5282;47.052;15.458;2023-04-08T10:15:32;97759.31;;;5.30;100.00
10470;BME280;5282;47.052;15.458;2023-04-08T10:18:31;97764.50;;;5.31;100.00
10470;BME280;5282;47.052;15.458;2023-04-08T10:21:02;97761.19;;;5.39;100.00
10470;BME280;5282;47.052;15.458;2023-04-08T10:23:52;97754.50;;;5.66;100.00
10470;BME280;5282;47.052;15.458;2023-04-08T10:26:40;97755.41;;;5.76;100.00
10470;BME280;5282;47.052;15.458;2023-04-08T10:29:40;97763.22;;;5.68;100.00
10470;BME280;5282;47.052;15.458;2023-04-08T10:32:07;97757.59;;;5.71;100.00
10470;BME280;5282;47.052;15.458;2023-04-08T10:34:50;97762.09;;;5.49;100.00
10470;BME280;5282;47.052;15.458;2023-04-08T10:37:18;97747.88;;;5.70;100.00
10470;BME280;5282;47.052;15.458;2023-04-08T10:39:48;97756.16;;;5.24;100.00
10470;BME280;5282;47.052;15.458;2023-04-08T10:42:17;97755.75;;;5.40;100.00
10470;BME280;5282;47.052;15.458;2023-04-08T10:44:44;97755.31;;;5.66;100.00
10470;BME280;5282;47.052;15.458;2023-04-08T10:47:12;97754.25;;;5.69;100.00
10470;BME280;5282;47.052;15.458;2023-04-08T10:49:39;97753.44;;;5.57;100.00
10470;BME280;5282;47.052;15.458;2023-04-08T10:52:07;97753.69;;;5.96;100.00
10470;BME280;5282;47.052;15.458;2023-04-08T10:54:35;97753.75;;;6.06;100.00
10470;BME280;5282;47.052;15.458;2023-04-08T10:57:03;97749.84;;;6.10;100.00
10470;BME280;5282;47.052;15.458;2023-04-08T10:59:31;97752.75;;;6.07;100.00
10470;BME280;5282;47.052;15.458;2023-04-08T11:01:58;97757.59;;;6.13;100.00
10470;BME280;5282;47.052;15.458;2023-04-08T11:04:27;97750.06;;;5.76;100.00
10470;BME280;5282;47.052;15.458;2023-04-08T11:06:53;97750.53;;;5.91;100.00
10470;BME280;5282;47.052;15.458;2023-04-08T11:09:20;97756.81;;;6.01;100.00
10470;BME280;5282;47.052;15.458;2023-04-08T11:11:47;97752.00;;;6.26;100.00
10470;BME280;5282;47.052;15.458;2023-04-08T11:14:15;97753.28;;;6.32;100.00
10470;BME280;5282;47.052;15.458;2023-04-08T11:16:47;97758.88;;;5.98;100.00
10470;BME280;5282;47.052;15.458;2023-04-08T11:19:14;97758.28;;;5.63;100.00
10470;BME280;5282;47.052;15.458;2023-04-08T11:21:41;97757.53;;;5.82;100.00
10470;BME280;5282;47.052;15.458;2023-04-08T11:24:09;97759.28;;;6.14;100.00
10470;BME280;5282;47.052;15.458;2023-04-08T11:26:39;97751.34;;;6.34;100.00
10470;BME280;5282;47.052;15.458;2023-04-08T11:29:09;97753.78;;;6.57;100.00
10470;BME280;5282;47.052;15.458;2023-04-08T11:31:39;97750.84;;;6.60;100.00
10470;BME280;5282;47.052;15.458;2023-04-08T11:34:08;97752.47;;;6.31;100.00
10470;BME280;5282;47.052;15.458;2023-04-08T11:36:38;97757.81;;;6.41;100.00
10470;BME280;5282;47.052;15.458;2023-04-08T11:39:07;97746.13;;;6.93;100.00
10470;BME280;5282;47.052;15.458;2023-04-08T11:41:35;97744.97;;;7.15;100.00
10470;BME280;5282;47.052;15.458;2023-04-08T11:44:03;97750.63;;;7.22;100.00
10470;BME280;5282;47.052;15.458;2023-04-08T11:46:31;97753.31;;;7.02;100.00
10470;BME280;5282;47.052;15.458;2023-04-08T11:49:01;97744.28;;;7.03;100.00
10470;BME280;5282;47.052;15.458;2023-04-08T11:51:30;97746.13;;;7.22;100.00
10470;BME280;5282;47.052;15.458;2023-04-08T11:53:59;97752.56;;;6.81;100.00
10470;BME280;5282;47.052;15.458;2023-04-08T11:56:26;97744.41;;;6.92;100.00
10470;BME280;5282;47.052;15.458;2023-04-08T11:58:55;97747.25;;;7.00;100.00
10470;BME280;5282;47.052;15.458;2023-04-08T12:01:22;97742.69;;;6.81;100.00
10470;BME280;5282;47.052;15.458;2023-04-08T12:03:55;97744.69;;;6.89;100.00
10470;BME280;5282;47.052;15.458;2023-04-08T12:06:22;97747.09;;;6.92;100.00
10470;BME280;5282;47.052;15.458;2023-04-08T12:08:53;97742.59;;;6.83;100.00
10470;BME280;5282;47.052;15.458;2023-04-08T12:11:21;97737.53;;;7.09;100.00
10470;BME280;5282;47.052;15.458;2023-04-08T12:13:49;97745.50;;;6.60;100.00
10470;BME280;5282;47.052;15.458;2023-04-08T12:16:17;97745.63;;;6.58;100.00
10470;BME280;5282;47.052;15.458;2023-04-08T12:18:45;97743.09;;;6.57;100.00
10470;BME280;5282;47.052;15.458;2023-04-08T12:21:12;97748.59;;;6.65;100.00
10470;BME280;5282;47.052;15.458;2023-04-08T12:23:39;97743.09;;;6.57;100.00
10470;BME280;5282;47.052;15.458;2023-04-08T12:26:07;97744.00;;;6.77;100.00
10470;BME280;5282;47.052;15.458;2023-04-08T12:28:34;97738.03;;;6.63;100.00
10470;BME280;5282;47.052;15.458;2023-04-08T12:31:02;97743.00;;;6.88;100.00
10470;BME280;5282;47.052;15.458;2023-04-08T12:33:30;97741.13;;;6.59;100.00
10470;BME280;5282;47.052;15.458;2023-04-08T12:35:57;97744.28;;;6.84;100.00
10470;BME280;5282;47.052;15.458;2023-04-08T12:38:27;97735.78;;;6.59;100.00
10470;BME280;5282;47.052;15.458;2023-04-08T12:40:54;97738.09;;;6.93;100.00
10470;BME280;5282;47.052;15.458;2023-04-08T12:43:22;97737.50;;;6.99;100.00
10470;BME280;5282;47.052;15.458;2023-04-08T12:45:50;97737.38;;;7.10;100.00
10470;BME280;5282;47.052;15.458;2023-04-08T12:48:17;97736.41;;;7.12;100.00
10470;BME280;5282;47.052;15.458;2023-04-08T12:50:44;97740.06;;;7.10;100.00
10470;BME280;5282;47.052;15.458;2023-04-08T12:53:11;97742.84;;;6.79;100.00
10470;BME280;5282;47.052;15.458;2023-04-08T12:55:38;97736.66;;;6.89;100.00
10470;BME280;5282;47.052;15.458;2023-04-08T12:58:05;97734.69;;;7.10;100.00
10470;BME280;5282;47.052;15.458;2023-04-08T13:00:33;97734.56;;;7.12;100.00
10470;BME280;5282;47.052;15.458;2023-04-08T13:03:02;97733.00;;;7.09;100.00
10470;BME280;5282;47.052;15.458;2023-04-08T13:05:30;97740.06;;;7.10;100.00
10470;BME280;5282;47.052;15.458;2023-04-08T13:07:57;97739.47;;;6.97;100.00
10470;BME280;5282;47.052;15.458;2023-04-08T13:10:24;97744.78;;;6.58;100.00